Flight Track Log - Related Links

Times and Time Zones

All times are in EDT time to prevent confusion due to time zone crossing. See the SWA1319 flight status page for this flight to view local times or setup timezone preferences in your user account.

Time Position Orientation Groundspeed Altitude Reporting Facility
EDT Latitude Longitude Course Direction KTS MPH feet Rate Location/Type
Mon 11:45:16 AM 39.1333 -76.6833 218° Southwest 229 264 2,700  Level Potomac TRACON
Mon 11:46:16 AM 39.1667 -76.7500 303° West 253 291 6,000 2,800 Climbing Potomac TRACON
Mon 11:47:16 AM 39.2000 -76.8500 293° West 279 321 8,300 2,250 Climbing Potomac TRACON
Mon 11:48:16 AM 39.2000 -76.9333 270° West 287 330 10,500 1,800 Climbing Potomac TRACON
Mon 11:50:00 AM 39.0300 -77.2867 218° Southwest  Level FlightAware Approximate
Mon 11:50:16 AM 39.1500 -77.1333 252° West 353 406 13,700  Level Potomac TRACON
Mon 11:51:16 AM 39.0667 -77.2167 218° Southwest 363 418 15,800 2,000 Climbing Potomac TRACON
Mon 11:52:16 AM 38.9833 -77.3000 218° Southwest 379 436 17,700 1,800 Climbing Potomac TRACON
Mon 11:53:16 AM 38.9000 -77.3667 212° Southwest 389 448 19,400 1,710 Climbing Potomac TRACON
Mon 11:55:29 AM 38.6994 -77.5547 216° Southwest 394 453 23,200 1,710 Climbing Washington Center
Mon 11:56:29 AM 38.6083 -77.6375 215° Southwest 399 459 24,900 1,537 Climbing Washington Center
Mon 11:57:30 AM 38.5192 -77.7197 216° Southwest 404 465 26,300 1,884 Climbing Washington Center
Mon 11:58:30 AM 38.4547 -77.8294 233° Southwest 387 445 28,700 2,034 Climbing Washington Center
Mon 11:59:28 AM 38.3983 -77.9389 237° Southwest 387 445 30,300 1,361 Climbing Washington Center
Mon 12:00:29 PM 38.3481 -78.0564 241° Southwest 381 438 31,400 1,180 Climbing Washington Center
Mon 12:01:30 PM 38.2997 -78.1739 242° Southwest 381 438 32,700 1,190 Climbing Washington Center
Mon 12:02:30 PM 38.2514 -78.2914 242° Southwest 381 438 33,800 1,068 Climbing Washington Center
Mon 12:03:28 PM 38.2028 -78.4058 242° Southwest 370 426 34,800 908 Climbing Washington Center
Mon 12:04:29 PM 38.1542 -78.5203 242° Southwest 370 426 35,600 590 Climbing Washington Center
Mon 12:05:30 PM 38.1075 -78.6344 243° Southwest 370 426 36,000 202 Climbing Washington Center
Mon 12:06:28 PM 38.0608 -78.7486 243° Southwest 365 420 36,000  Level Washington Center
Mon 12:07:28 PM 38.0142 -78.8547 241° Southwest 365 420 36,000  Level Washington Center
Mon 12:08:28 PM 37.9653 -78.9686 241° Southwest 365 420 36,000  Level Washington Center
Mon 12:09:29 PM 37.9139 -79.0847 241° Southwest 365 420 36,000  Level Washington Center
Mon 12:10:29 PM 37.8606 -79.1978 239° Southwest 370 426 36,000  Level Washington Center
Mon 12:11:28 PM 37.7983 -79.3211 237° Southwest 377 434 36,000  Level Washington Center
Mon 12:12:29 PM 37.7425 -79.4364 239° Southwest 377 434 36,000  Level Washington Center
Mon 12:13:29 PM 37.6892 -79.5336 235° Southwest 382 440 36,000  Level Washington Center
Mon 12:14:30 PM 37.6267 -79.6589 238° Southwest 382 440 36,000  Level Washington Center
Mon 12:15:28 PM 37.5772 -79.7611 239° Southwest 382 440 36,000  Level Washington Center
Mon 12:16:28 PM 37.5122 -79.8908 238° Southwest 397 457 36,000  Level Washington Center
Mon 12:17:29 PM 37.4561 -80.0003 237° Southwest 397 457 36,000  Level Washington Center
Mon 12:18:29 PM 37.3978 -80.1119 237° Southwest 397 457 36,000  Level Washington Center
Mon 12:19:27 PM 37.3458 -80.2133 237° Southwest 392 451 36,000  Level Washington Center
Mon 12:19:43 PM 37.3319 -80.2386 235° Southwest 395 455 36,000  Level Atlanta Center
Mon 12:20:43 PM 37.2728 -80.3511 237° Southwest 402 463 36,000  Level Atlanta Center
Mon 12:21:43 PM 37.2097 -80.4739 237° Southwest 402 463 36,000  Level Atlanta Center
Mon 12:22:43 PM 37.1544 -80.5833 238° Southwest 396 456 36,000  Level Atlanta Center
Mon 12:23:43 PM 37.0972 -80.6978 238° Southwest 396 456 36,000  Level Atlanta Center
Mon 12:24:43 PM 37.0397 -80.8119 238° Southwest 391 450 36,000  Level Atlanta Center
Mon 12:25:43 PM 36.9881 -80.9103 237° Southwest 391 450 36,000  Level Atlanta Center
Mon 12:26:43 PM 36.9306 -81.0242 238° Southwest 391 450 36,000  Level Atlanta Center
Mon 12:27:43 PM 36.8728 -81.1378 238° Southwest 391 450 36,000  Level Atlanta Center
Mon 12:28:43 PM 36.8089 -81.2619 237° Southwest 391 450 36,000  Level Atlanta Center
Mon 12:29:43 PM 36.7611 -81.3594 239° Southwest 391 450 36,000  Level Atlanta Center
Mon 12:30:43 PM 36.7031 -81.4728 237° Southwest 391 450 36,000  Level Atlanta Center
Mon 12:31:43 PM 36.6428 -81.5886 237° Southwest 398 458 36,000  Level Atlanta Center
Mon 12:32:43 PM 36.5806 -81.7119 238° Southwest 398 458 36,000  Level Atlanta Center
Mon 12:33:43 PM 36.5200 -81.8222 236° Southwest 398 458 36,000  Level Atlanta Center
Mon 12:34:43 PM 36.4617 -81.9350 237° Southwest 391 450 36,000  Level Atlanta Center
Mon 12:35:43 PM 36.4008 -82.0500 237° Southwest 396 456 36,000  Level Atlanta Center
Mon 12:36:43 PM 36.3400 -82.1650 237° Southwest 396 456 36,000  Level Atlanta Center
Mon 12:37:43 PM 36.2814 -82.2769 237° Southwest 402 463 36,000  Level Atlanta Center
Mon 12:38:43 PM 36.2203 -82.3917 237° Southwest 402 463 36,000  Level Atlanta Center
Mon 12:39:43 PM 36.1592 -82.5061 237° Southwest 402 463 36,000  Level Atlanta Center
Mon 12:40:43 PM 36.0981 -82.6178 236° Southwest 402 463 36,000  Level Atlanta Center
Mon 12:41:43 PM 36.0389 -82.7317 237° Southwest 408 470 36,000  Level Atlanta Center
Mon 12:42:43 PM 35.9775 -82.8481 237° Southwest 403 464 36,000  Level Atlanta Center
Mon 12:43:43 PM 35.9158 -82.9619 236° Southwest 403 464 36,000  Level Atlanta Center
Mon 12:44:43 PM 35.8564 -83.0703 236° Southwest 398 458 36,000  Level Atlanta Center
Mon 12:45:43 PM 35.7967 -83.1811 236° Southwest 398 458 36,000  Level Atlanta Center
Mon 12:46:43 PM 35.7450 -83.2814 238° Southwest 398 458 36,000  Level Atlanta Center
Mon 12:47:43 PM 35.6831 -83.3919 235° Southwest 398 458 36,000  Level Atlanta Center
Mon 12:48:43 PM 35.6211 -83.5047 236° Southwest 398 458 36,000  Level Atlanta Center
Mon 12:49:43 PM 35.5611 -83.6150 236° Southwest 398 458 36,000 -500 Level Atlanta Center
Mon 12:50:43 PM 35.4989 -83.7275 236° Southwest 398 458 35,000 -500 Descending Atlanta Center
Mon 12:51:43 PM 35.4364 -83.8450 237° Southwest 398 458 35,000  Level Atlanta Center
Mon 12:52:43 PM 35.3719 -83.9597 235° Southwest 403 464 35,000  Level Atlanta Center
Mon 12:53:43 PM 35.3053 -84.0769 235° Southwest 416 479 35,000  Level Atlanta Center
Mon 12:54:43 PM 35.2383 -84.1964 236° Southwest 422 486 35,000  Level Atlanta Center
Mon 12:55:43 PM 35.1650 -84.3283 236° Southwest 422 486 35,000  Level Atlanta Center
Mon 12:56:43 PM 35.1000 -84.4450 236° Southwest 422 486 35,000  Level Atlanta Center
Mon 12:57:43 PM 35.0328 -84.5639 235° Southwest 422 486 35,000  Level Atlanta Center
Mon 12:58:43 PM 34.9675 -84.6775 235° Southwest 422 486 35,000  Level Atlanta Center
Mon 12:59:43 PM 34.9044 -84.7908 236° Southwest 422 486 35,000  Level Atlanta Center
Mon 01:00:43 PM 34.8389 -84.9042 235° Southwest 417 480 35,000  Level Atlanta Center
Mon 01:01:43 PM 34.7756 -85.0150 235° Southwest 417 480 35,000  Level Atlanta Center
Mon 01:02:43 PM 34.7119 -85.1253 235° Southwest 411 473 35,000  Level Atlanta Center
Mon 01:03:43 PM 34.6483 -85.2381 236° Southwest 411 473 35,000 -350 Level Atlanta Center
Mon 01:04:43 PM 34.5844 -85.3483 235° Southwest 411 473 34,300 500 Descending Atlanta Center
Mon 01:05:43 PM 34.5208 -85.4608 236° Southwest 411 473 36,000 -2,150 Climbing Atlanta Center
Mon 01:06:43 PM 34.4525 -85.5781 235° Southwest 416 479 30,000 -3,500 Descending Atlanta Center
Mon 01:07:43 PM 34.3864 -85.6900 234° Southwest 421 484 29,000 -1,000 Descending Atlanta Center
Mon 01:08:43 PM 34.3242 -85.8044 237° Southwest 421 484 28,000 -1,200 Descending Atlanta Center
Mon 01:09:43 PM 34.2558 -85.9111 232° Southwest 415 478 26,600 -2,550 Descending Atlanta Center
Mon 01:10:43 PM 34.1914 -86.0253 236° Southwest 415 478 22,900 -2,450 Descending Atlanta Center
Mon 01:11:43 PM 34.1250 -86.1392 235° Southwest 420 483 21,700 -1,100 Descending Atlanta Center
Mon 01:12:43 PM 34.0647 -86.2381 234° Southwest 399 459 20,700 -1,450 Descending Atlanta Center
Mon 01:13:43 PM 34.0067 -86.3317 233° Southwest 375 432 18,800 -2,000 Descending Atlanta Center
Mon 01:14:43 PM 33.9181 -86.3894 208° Southwest 348 400 16,700 -2,150 Descending Atlanta Center
Mon 01:15:43 PM 33.8375 -86.4547 214° Southwest 360 414 14,500 -2,240 Descending Atlanta Center
Mon 01:15:58 PM 33.8200 -86.4842 234° Southwest 361 415 13,900 -2,300 Descending Atlanta Center
Mon 01:16:43 PM 33.7811 -86.5531 236° Southwest 349 402 12,200 -2,164 Descending Atlanta Center
Mon 01:16:59 PM 33.7681 -86.5803 240° Southwest 348 400 11,700 -1,800 Descending Atlanta Center
Mon 01:17:43 PM 33.7311 -86.6464 236° Southwest 355 409 10,400 -1,500 Descending Atlanta Center
Mon 01:17:59 PM 33.7158 -86.6761 238° Southwest 334 384 10,200 -1,100 Descending Atlanta Center
Mon 01:18:43 PM 33.6833 -86.7325 235° Southwest 331 381 9,300 -1,519 Descending Atlanta Center
Mon 01:19:18 PM 33.6531 -86.7839 235° Southwest 270 311 8,200 -1,800 Descending Atlanta Center
Mon 01:19:43 PM 33.6400 -86.8083 237° Southwest 302 348 7,500 -1,869 Descending Atlanta Center
Mon 01:20:19 PM 33.6139 -86.8575 237° Southwest 261 300 6,300 -1,600 Descending Atlanta Center
Mon 01:20:43 PM 33.6008 -86.8769 231° Southwest 274 315 5,900 -1,500 Descending Atlanta Center
Mon 01:21:43 PM 33.5639 -86.9406 235° Southwest 252 290 4,200 -1,714 Descending Atlanta Center
Mon 01:22:14 PM 33.5261 -86.9444 185° South 232 267 3,300 -1,200 Descending Atlanta Center
Mon 01:22:43 PM 33.5081 -86.9164 128° Southeast 183 211 3,000 -492 Descending Atlanta Center
Mon 01:23:15 PM 33.4900 -86.8858 125° Southeast 233 268 2,800 -700 Descending Atlanta Center
Mon 01:23:43 PM 33.5033 -86.8539 63° Northeast 112 129 2,300 -1,000 Descending Atlanta Center
Mon 01:24:15 PM 33.5183 -86.8319 51° Northeast 173 199 1,800 -600 Descending Atlanta Center
Mon 01:24:43 PM 33.5189 -86.8144 88° East 112 129 1,700 -787 Descending Atlanta Center
Mon 01:25:16 PM 33.5422 -86.7928 38° Northeast 139 160 1,000 -1,273 Descending Atlanta Center
Mon 01:27:00 PM 33.5500 -86.7500 90° East  Level FlightAware Approximate
Mon 01:34:00 PM 33.5639 -86.7523 90° East  Level Estimated

Login

Don't have an account? Register now (free) for customized features, flight alerts, and more!